Time;durP1;ratioP1;P1;durP2;ratioP2;P2;SDS_P1;SDS_P2;PMS_P1;PMS_P2;Temp;Humidity;BMP_temperature;BMP_pressure;BME280_temperature;BME280_humidity;BME280_pressure;Samples;Min_cycle;Max_cycle;Signal;HPM_P1;HPM_P2
2022/04/13 00:00:28;;;;;;;37.70;27.10;;;;;;;3.95;69.54;99413.99;105394;1271;69214;-74
2022/04/13 00:03:04;;;;;;;34.70;24.30;;;;;;;3.94;69.53;99411.75;105260;1271;73296;-72
2022/04/13 00:05:32;;;;;;;40.30;26.50;;;;;;;3.93;69.61;99413.68;104894;1271;62107;-73
2022/04/13 00:08:00;;;;;;;33.00;25.60;;;;;;;3.94;69.59;99413.84;105217;1271;62180;-72
2022/04/13 00:10:27;;;;;;;34.40;25.40;;;;;;;3.93;69.57;99417.57;105432;1271;75184;-73
2022/04/13 00:12:53;;;;;;;35.00;24.60;;;;;;;3.91;69.59;99419.05;105233;1271;62075;-72
2022/04/13 00:15:20;;;;;;;32.30;25.00;;;;;;;3.91;69.69;99424.32;105213;1271;62057;-71
2022/04/13 00:17:46;;;;;;;32.00;23.80;;;;;;;3.90;69.73;99422.09;105255;1271;62042;-71
2022/04/13 00:20:13;;;;;;;36.80;24.30;;;;;;;3.91;69.84;99424.32;105240;1271;62131;-72
2022/04/13 00:22:40;;;;;;;30.10;23.90;;;;;;;3.92;69.81;99424.28;105237;1271;77106;-72
2022/04/13 00:25:06;;;;;;;35.90;23.50;;;;;;;3.91;69.74;99427.46;105259;1271;62190;-71
2022/04/13 00:27:33;;;;;;;30.90;23.70;;;;;;;3.91;69.81;99425.02;105243;1271;74213;-72
2022/04/13 00:29:59;;;;;;;33.20;23.40;;;;;;;3.88;69.85;99425.10;105232;1271;62071;-73
2022/04/13 00:32:26;;;;;;;30.60;22.60;;;;;;;3.86;69.88;99423.77;105236;1270;62161;-73
2022/04/13 00:34:54;;;;;;;32.90;22.80;;;;;;;3.85;70.04;99424.88;105221;1271;62161;-73
2022/04/13 00:37:21;;;;;;;34.10;23.90;;;;;;;3.84;70.11;99421.53;105244;1271;69133;-72
2022/04/13 00:39:47;;;;;;;29.20;24.00;;;;;;;3.84;70.32;99421.90;105263;1271;62196;-73
2022/04/13 00:42:16;;;;;;;36.10;24.70;;;;;;;3.83;70.34;99424.23;104918;1271;62181;-72
2022/04/13 00:44:43;;;;;;;33.10;25.50;;;;;;;3.82;70.41;99423.58;105255;1269;62062;-72
2022/04/13 00:47:10;;;;;;;32.80;24.90;;;;;;;3.77;70.41;99422.85;105243;1271;76070;-72
2022/04/13 00:49:37;;;;;;;36.70;26.50;;;;;;;3.74;70.56;99421.55;105219;1269;69374;-72
2022/04/13 00:52:05;;;;;;;35.40;26.70;;;;;;;3.72;70.69;99417.54;105219;1271;73418;-71
2022/04/13 00:54:33;;;;;;;34.60;26.10;;;;;;;3.70;70.74;99418.67;105224;1271;62541;-72
2022/04/13 00:57:08;;;;;;;36.70;27.30;;;;;;;3.66;71.06;99420.91;105131;1271;226228;-74
2022/04/13 00:59:39;;;;;;;37.20;26.50;;;;;;;3.65;71.17;99417.26;105341;1271;76220;-73
2022/04/13 01:02:08;;;;;;;39.70;26.70;;;;;;;3.62;70.99;99413.67;105043;1271;69433;-72
2022/04/13 01:04:35;;;;;;;36.50;28.00;;;;;;;3.57;71.04;99412.60;105369;1271;73160;-71
2022/04/13 01:07:06;;;;;;;35.40;27.60;;;;;;;3.49;71.21;99408.09;105247;1271;62088;-72
2022/04/13 01:09:34;;;;;;;38.30;28.50;;;;;;;3.41;71.30;99410.28;105253;1271;61990;-72
2022/04/13 01:12:00;;;;;;;37.70;28.20;;;;;;;3.35;71.56;99413.45;105031;1271;76333;-71
2022/04/13 01:14:28;;;;;;;39.00;29.70;;;;;;;3.30;71.76;99412.02;105226;1270;70298;-71
2022/04/13 01:16:55;;;;;;;38.00;30.10;;;;;;;3.27;71.77;99408.96;105249;1271;74123;-72
2022/04/13 01:19:21;;;;;;;41.00;30.60;;;;;;;3.20;71.95;99404.41;105236;1271;62062;-73
2022/04/13 01:21:58;;;;;;;37.10;28.70;;;;;;;3.13;72.23;99395.85;105277;1271;62123;-73
2022/04/13 01:24:26;;;;;;;36.80;28.60;;;;;;;3.08;72.61;99395.84;105289;1271;75448;-73
2022/04/13 01:26:52;;;;;;;37.80;28.60;;;;;;;3.04;72.71;99397.70;105309;1271;69535;-73
2022/04/13 01:29:19;;;;;;;37.70;27.80;;;;;;;3.01;73.03;99397.63;105288;1271;73629;-72
2022/04/13 01:31:45;;;;;;;37.90;28.40;;;;;;;3.00;73.09;99399.58;105234;1271;62197;-71
2022/04/13 01:34:13;;;;;;;43.20;29.00;;;;;;;3.00;73.22;99404.33;105247;1270;62064;-72
2022/04/13 01:36:40;;;;;;;39.30;29.70;;;;;;;2.99;73.38;99406.11;105250;1269;76276;-73
2022/04/13 01:39:08;;;;;;;37.30;28.70;;;;;;;2.98;73.51;99406.15;105254;1271;69236;-73
2022/04/13 01:41:34;;;;;;;38.40;28.30;;;;;;;2.96;73.50;99406.36;105360;1269;73567;-72
2022/04/13 01:44:09;;;;;;;39.30;29.10;;;;;;;2.93;73.65;99406.29;104910;1271;62073;-73
2022/04/13 01:46:39;;;;;;;40.40;30.50;;;;;;;2.87;73.59;99403.81;104975;1271;62057;-74
2022/04/13 01:49:06;;;;;;;40.90;29.80;;;;;;;2.83;73.85;99407.78;105242;1271;62046;-72
2022/04/13 01:51:33;;;;;;;43.70;31.10;;;;;;;2.78;74.04;99403.38;105093;1270;62050;-73
2022/04/13 01:53:59;;;;;;;35.20;28.20;;;;;;;2.75;74.27;99405.22;105206;1270;74374;-72
2022/04/13 01:56:26;;;;;;;43.70;31.20;;;;;;;2.73;74.63;99402.98;105243;1269;62072;-73
2022/04/13 01:58:52;;;;;;;36.00;29.20;;;;;;;2.71;74.78;99404.63;105250;1270;62148;-73
2022/04/13 02:01:19;;;;;;;43.40;30.60;;;;;;;2.69;74.74;99405.04;105223;1271;62178;-73
2022/04/13 02:03:46;;;;;;;44.90;31.20;;;;;;;2.68;75.04;99408.92;105230;1271;69499;-72
2022/04/13 02:06:14;;;;;;;43.00;32.00;;;;;;;2.67;74.88;99409.48;105220;1271;62508;-72
2022/04/13 02:08:41;;;;;;;41.10;31.70;;;;;;;2.64;75.06;99409.56;105242;1271;62197;-72
2022/04/13 02:11:08;;;;;;;39.80;30.50;;;;;;;2.62;75.52;99413.29;105332;1271;62575;-73
2022/04/13 02:13:34;;;;;;;44.40;33.10;;;;;;;2.63;75.53;99413.44;105182;1269;77194;-73
2022/04/13 02:16:01;;;;;;;42.20;32.90;;;;;;;2.61;75.53;99421.23;105288;1269;62082;-72
2022/04/13 02:18:28;;;;;;;47.00;35.00;;;;;;;2.58;75.66;99416.92;105229;1271;74292;-72
2022/04/13 02:20:54;;;;;;;45.20;33.60;;;;;;;2.55;75.82;99416.48;105235;1270;62087;-73
2022/04/13 02:23:21;;;;;;;42.20;32.00;;;;;;;2.53;75.88;99420.94;105237;1271;62174;-71
2022/04/13 02:25:47;;;;;;;44.00;33.50;;;;;;;2.47;75.98;99418.98;105238;1271;75953;-72
2022/04/13 02:28:14;;;;;;;43.10;33.10;;;;;;;2.42;76.26;99415.08;105260;1270;69163;-72
2022/04/13 02:30:40;;;;;;;43.20;33.80;;;;;;;2.37;76.33;99411.00;105221;1270;62126;-72
2022/04/13 02:33:07;;;;;;;43.70;34.20;;;;;;;2.35;76.46;99410.55;105236;1271;62045;-72
2022/04/13 02:35:33;;;;;;;48.00;35.00;;;;;;;2.33;76.76;99413.40;104950;1271;62049;-73
2022/04/13 02:38:00;;;;;;;46.10;34.20;;;;;;;2.32;76.81;99413.09;105253;1271;62056;-72
2022/04/13 02:40:26;;;;;;;46.00;34.90;;;;;;;2.30;76.79;99416.28;104991;1271;62416;-72
2022/04/13 02:42:53;;;;;;;46.20;34.40;;;;;;;2.26;76.90;99416.39;105213;1270;62180;-73
2022/04/13 02:45:20;;;;;;;50.20;35.10;;;;;;;2.23;76.96;99417.87;105210;1271;62049;-73
2022/04/13 02:47:46;;;;;;;50.00;35.40;;;;;;;2.20;77.07;99420.23;105232;1271;62134;-73
2022/04/13 02:50:13;;;;;;;44.50;33.00;;;;;;;2.17;77.13;99420.29;105251;1271;62222;-72
2022/04/13 02:52:39;;;;;;;48.40;36.70;;;;;;;2.13;77.67;99420.23;105238;1271;62190;-72
2022/04/13 02:55:08;;;;;;;44.60;33.40;;;;;;;2.15;77.80;99421.94;104180;1271;1003063;-74
2022/04/13 02:57:36;;;;;;;45.00;35.00;;;;;;;2.14;77.92;99420.89;105286;1271;62511;-72
2022/04/13 03:00:03;;;;;;;50.60;37.60;;;;;;;2.12;77.84;99419.19;105265;1270;62173;-72
2022/04/13 03:02:30;;;;;;;48.20;36.10;;;;;;;2.10;77.96;99425.03;105271;1271;75649;-72
2022/04/13 03:04:57;;;;;;;50.00;34.70;;;;;;;2.07;77.99;99424.24;105245;1271;70147;-72
2022/04/13 03:07:25;;;;;;;45.30;36.10;;;;;;;2.04;78.21;99424.86;104509;1270;1002556;-74
2022/04/13 03:09:52;;;;;;;56.30;38.60;;;;;;;1.99;78.17;99426.38;105262;1271;62090;-73
2022/04/13 03:12:19;;;;;;;48.20;36.30;;;;;;;1.92;78.39;99423.04;105223;1271;62141;-72
2022/04/13 03:14:45;;;;;;;49.20;36.40;;;;;;;1.86;78.49;99418.64;105249;1271;62120;-73
2022/04/13 03:17:11;;;;;;;49.30;36.00;;;;;;;1.82;78.89;99419.09;104956;1271;62353;-72
2022/04/13 03:19:38;;;;;;;51.60;35.30;;;;;;;1.82;78.86;99426.63;105220;1270;62100;-72
2022/04/13 03:22:04;;;;;;;48.30;34.70;;;;;;;1.82;78.98;99434.32;105044;1271;62136;-72
2022/04/13 03:24:34;;;;;;;51.10;34.50;;;;;;;1.81;78.89;99437.68;105236;1271;62174;-72
2022/04/13 03:27:01;;;;;;;44.50;34.60;;;;;;;1.80;78.94;99444.36;105296;1271;76201;-73
2022/04/13 03:29:28;;;;;;;53.20;35.20;;;;;;;1.81;79.08;99442.75;105239;1269;69412;-73
2022/04/13 03:31:54;;;;;;;42.20;32.50;;;;;;;1.82;79.01;99439.58;105245;1271;73633;-75
2022/04/13 03:34:21;;;;;;;45.30;34.50;;;;;;;1.82;79.14;99433.10;105262;1271;62047;-72
2022/04/13 03:36:50;;;;;;;47.10;36.00;;;;;;;1.81;79.28;99427.51;105258;1271;62078;-72
2022/04/13 03:39:17;;;;;;;45.50;35.50;;;;;;;1.82;79.54;99431.70;105244;1270;75003;-71
2022/04/13 03:41:44;;;;;;;48.80;35.60;;;;;;;1.82;79.21;99435.72;104968;1271;69407;-72
2022/04/13 03:44:11;;;;;;;48.10;35.20;;;;;;;1.81;79.42;99444.15;105243;1270;71307;-74
2022/04/13 03:46:39;;;;;;;45.30;35.60;;;;;;;1.81;79.48;99445.73;105004;1271;62518;-73
2022/04/13 03:49:07;;;;;;;47.50;36.00;;;;;;;1.80;79.37;99448.23;105061;1271;61928;-73
2022/04/13 03:51:34;;;;;;;48.40;35.20;;;;;;;1.79;79.33;99448.59;105354;1270;76888;-72
2022/04/13 03:54:01;;;;;;;50.00;35.80;;;;;;;1.78;79.28;99452.30;105247;1270;70693;-72
2022/04/13 03:56:29;;;;;;;46.30;33.50;;;;;;;1.77;79.39;99451.44;105268;1271;73382;-73
2022/04/13 03:58:58;;;;;;;46.40;34.60;;;;;;;1.74;79.38;99447.83;105488;1270;62161;-72
2022/04/13 04:01:25;;;;;;;47.70;37.40;;;;;;;1.74;79.62;99446.95;105314;1271;62062;-72
2022/04/13 04:03:53;;;;;;;46.50;34.20;;;;;;;1.76;79.55;99454.79;105319;1271;76944;-71
2022/04/13 04:06:20;;;;;;;43.70;34.80;;;;;;;1.77;79.67;99448.81;105087;1271;69179;-72
2022/04/13 04:08:46;;;;;;;45.40;34.00;;;;;;;1.79;79.58;99445.62;105285;1271;73645;-75
2022/04/13 04:11:13;;;;;;;46.50;35.40;;;;;;;1.80;79.70;99447.16;105275;1271;62069;-74
2022/04/13 04:13:40;;;;;;;53.30;34.50;;;;;;;1.81;79.49;99443.80;104636;1271;1002991;-72
2022/04/13 04:16:07;;;;;;;43.70;33.20;;;;;;;1.89;79.43;99446.77;105392;1271;77034;-75
2022/04/13 04:18:33;;;;;;;52.10;34.60;;;;;;;2.21;79.02;99445.78;105526;1271;62036;-73
2022/04/13 04:21:00;;;;;;;44.40;33.60;;;;;;;2.66;78.33;99443.38;105288;1271;62292;-72
2022/04/13 04:23:26;;;;;;;42.50;32.80;;;;;;;3.10;77.53;99445.64;105714;1271;62132;-74
2022/04/13 04:25:53;;;;;;;44.80;32.80;;;;;;;3.54;76.63;99442.90;106556;1271;61948;-73
2022/04/13 04:28:19;;;;;;;42.40;31.10;;;;;;;3.95;75.82;99441.27;107357;1271;61985;-71
2022/04/13 04:30:46;;;;;;;36.80;29.20;;;;;;;4.27;75.09;99442.82;107493;1271;61931;-71
2022/04/13 04:33:12;;;;;;;36.80;29.30;;;;;;;4.58;74.44;99443.49;107610;1269;61969;-74
2022/04/13 04:35:39;;;;;;;32.00;28.40;;;;;;;4.97;73.58;99445.80;106677;1271;62132;-71
2022/04/13 04:38:06;;;;;;;35.80;28.10;;;;;;;5.44;72.59;99449.09;105285;1271;62129;-73
2022/04/13 04:40:33;;;;;;;35.40;28.10;;;;;;;5.85;71.50;99445.91;105024;1271;77059;-72
2022/04/13 04:42:59;;;;;;;34.60;28.20;;;;;;;6.30;70.62;99443.39;105294;1271;69460;-74
2022/04/13 04:45:26;;;;;;;34.60;26.90;;;;;;;6.66;69.58;99443.44;105341;1271;62276;-74
2022/04/13 04:47:53;;;;;;;37.20;27.90;;;;;;;7.02;68.67;99447.13;105014;1271;62218;-74
2022/04/13 04:50:21;;;;;;;37.90;28.40;;;;;;;7.35;67.72;99451.98;105304;1271;62037;-72
2022/04/13 04:52:49;;;;;;;33.20;26.40;;;;;;;7.58;66.63;99452.32;105284;1271;75800;-73
2022/04/13 04:55:18;;;;;;;36.70;26.00;;;;;;;7.78;66.13;99456.48;105376;1271;69676;-71
2022/04/13 04:57:45;;;;;;;35.40;27.40;;;;;;;7.92;65.44;99460.77;105229;1271;73964;-72
2022/04/13 05:00:20;;;;;;;30.40;25.80;;;;;;;8.22;64.73;99455.41;105220;1271;62053;-74
2022/04/13 05:02:48;;;;;;;31.90;25.20;;;;;;;8.44;62.61;99453.27;105036;1271;62143;-72
2022/04/13 05:05:14;;;;;;;32.70;26.10;;;;;;;8.40;61.61;99455.61;105280;1271;77041;-74
2022/04/13 05:07:42;;;;;;;32.40;24.60;;;;;;;8.42;61.77;99457.26;105238;1271;69142;-73
2022/04/13 05:10:09;;;;;;;33.70;26.50;;;;;;;8.60;61.29;99457.23;104962;1271;73412;-75
2022/04/13 05:12:43;;;;;;;35.40;26.60;;;;;;;8.74;60.88;99450.69;105031;1271;62156;-72
2022/04/13 05:15:11;;;;;;;33.30;24.40;;;;;;;8.96;60.56;99454.48;105316;1269;62026;-73
2022/04/13 05:17:37;;;;;;;31.80;25.50;;;;;;;9.17;60.26;99458.67;105121;1271;77474;-73
2022/04/13 05:20:06;;;;;;;33.90;25.20;;;;;;;9.34;59.52;99461.14;105256;1271;69089;-73
2022/04/13 05:22:33;;;;;;;30.30;25.10;;;;;;;9.50;58.88;99462.77;105089;1271;71689;-75
2022/04/13 05:25:05;;;;;;;32.10;24.70;;;;;;;9.55;58.07;99463.70;105238;1271;62109;-73
2022/04/13 05:27:31;;;;;;;35.70;25.00;;;;;;;9.55;57.32;99461.60;105116;1271;62069;-72
2022/04/13 05:29:58;;;;;;;29.90;24.10;;;;;;;9.55;57.21;99465.81;105035;1271;74489;-72
2022/04/13 05:32:25;;;;;;;30.00;24.50;;;;;;;9.52;56.46;99465.84;105024;1271;69265;-73
2022/04/13 05:34:58;;;;;;;29.70;23.20;;;;;;;9.45;56.41;99472.96;105118;1270;73224;-74
2022/04/13 05:37:24;;;;;;;34.30;26.60;;;;;;;9.35;55.96;99471.55;105315;1271;62138;-73
2022/04/13 05:39:51;;;;;;;31.40;24.30;;;;;;;9.31;56.27;99476.70;105266;1271;62070;-73
2022/04/13 05:42:24;;;;;;;30.60;24.60;;;;;;;9.36;56.13;99483.04;105216;1271;62036;-73
2022/04/13 05:44:52;;;;;;;33.40;24.60;;;;;;;9.38;55.83;99481.13;105260;1271;69662;-72
2022/04/13 05:47:18;;;;;;;27.50;23.70;;;;;;;9.40;55.93;99485.64;105313;1269;73198;-74
2022/04/13 05:49:45;;;;;;;27.90;23.30;;;;;;;9.45;55.33;99486.95;105253;1271;62523;-74
2022/04/13 05:52:11;;;;;;;30.20;24.60;;;;;;;9.42;55.33;99490.98;105280;1271;62148;-72
2022/04/13 05:54:38;;;;;;;30.40;23.30;;;;;;;9.49;55.40;99492.06;105267;1271;62073;-74
2022/04/13 05:57:04;;;;;;;29.20;23.40;;;;;;;9.52;55.36;99490.49;105260;1271;62190;-72
2022/04/13 05:59:31;;;;;;;28.90;23.90;;;;;;;9.57;54.94;99486.30;105245;1271;62079;-72
2022/04/13 06:01:57;;;;;;;27.00;22.80;;;;;;;9.60;55.31;99486.47;105252;1271;62324;-72
2022/04/13 06:04:25;;;;;;;26.40;23.20;;;;;;;9.69;55.11;99486.67;105218;1271;62090;-72
2022/04/13 06:06:54;;;;;;;34.80;24.70;;;;;;;9.72;55.14;99490.42;105242;1269;76254;-72
2022/04/13 06:09:22;;;;;;;28.50;23.10;;;;;;;9.87;55.47;99488.73;105249;1271;69361;-72
2022/04/13 06:11:49;;;;;;;28.40;23.20;;;;;;;10.07;55.66;99493.64;105307;1271;73466;-72
2022/04/13 06:14:16;;;;;;;30.00;24.10;;;;;;;10.23;55.32;99496.24;105253;1271;62044;-73
2022/04/13 06:16:43;;;;;;;26.80;23.60;;;;;;;10.40;55.21;99486.04;104942;1271;62057;-72
2022/04/13 06:19:10;;;;;;;29.00;23.20;;;;;;;10.50;54.79;99491.37;105231;1271;74149;-73
2022/04/13 06:21:37;;;;;;;29.10;24.20;;;;;;;10.56;54.70;99489.08;105388;1271;69541;-73
2022/04/13 06:24:04;;;;;;;28.10;23.30;;;;;;;10.67;54.74;99493.73;105093;1271;72714;-73
2022/04/13 06:26:31;;;;;;;28.20;24.30;;;;;;;10.74;54.06;99492.20;105000;1270;62110;-74
2022/04/13 06:28:57;;;;;;;32.90;25.90;;;;;;;10.70;53.87;99498.89;105277;1271;62155;-73
2022/04/13 06:31:24;;;;;;;32.40;26.20;;;;;;;10.64;53.82;99499.05;105261;1271;62194;-72
2022/04/13 06:33:52;;;;;;;28.00;24.60;;;;;;;10.55;53.45;99507.57;105215;1271;62100;-73
2022/04/13 06:36:19;;;;;;;34.90;27.00;;;;;;;10.35;53.38;99512.10;105265;1271;73459;-74
2022/04/13 06:38:46;;;;;;;57.70;45.90;;;;;;;10.21;53.80;99512.38;104991;1271;62087;-73
2022/04/13 06:41:13;;;;;;;28.50;24.40;;;;;;;10.10;53.61;99518.32;105218;1271;62136;-73
2022/04/13 06:43:40;;;;;;;37.20;33.40;;;;;;;9.84;53.72;99522.05;105251;1271;76039;-74
2022/04/13 06:46:08;;;;;;;24.70;21.90;;;;;;;9.46;54.20;99524.86;105395;1270;68953;-74
2022/04/13 06:48:35;;;;;;;154.40;100.80;;;;;;;9.15;54.81;99523.64;105234;1271;73437;-72
2022/04/13 06:51:03;;;;;;;75.90;67.80;;;;;;;8.96;55.48;99528.75;105263;1271;62178;-74
2022/04/13 06:53:29;;;;;;;32.40;28.70;;;;;;;8.92;55.67;99530.36;105332;1271;62034;-73
2022/04/13 06:55:56;;;;;;;28.30;24.60;;;;;;;8.81;55.37;99528.29;105256;1271;62155;-74
2022/04/13 06:58:22;;;;;;;30.70;27.70;;;;;;;8.74;55.25;99535.55;105261;1271;62174;-74
2022/04/13 07:00:49;;;;;;;24.90;20.30;;;;;;;8.66;55.70;99533.84;105259;1271;74483;-73
2022/04/13 07:03:16;;;;;;;21.30;17.70;;;;;;;8.65;56.00;99533.32;105247;1271;61437;-71
2022/04/13 07:05:42;;;;;;;23.90;20.60;;;;;;;8.64;55.87;99536.55;105204;1271;62062;-72
2022/04/13 07:08:09;;;;;;;25.20;20.80;;;;;;;8.63;55.96;99534.33;105197;1271;75968;-73
2022/04/13 07:10:36;;;;;;;25.80;21.40;;;;;;;8.66;56.43;99529.89;104994;1271;62205;-73
2022/04/13 07:13:02;;;;;;;23.60;20.70;;;;;;;8.80;56.98;99530.08;105296;1271;73103;-73
2022/04/13 07:15:29;;;;;;;23.10;20.10;;;;;;;8.96;57.08;99528.36;105269;1271;62060;-73
2022/04/13 07:17:57;;;;;;;28.00;21.00;;;;;;;9.01;56.60;99531.48;105171;1271;62095;-71
2022/04/13 07:20:23;;;;;;;23.10;17.80;;;;;;;9.08;57.16;99531.13;105276;1271;75862;-74
2022/04/13 07:22:52;;;;;;;22.20;16.90;;;;;;;9.22;56.70;99526.32;105299;1271;69384;-73
2022/04/13 07:25:21;;;;;;;19.80;17.60;;;;;;;9.24;56.26;99525.64;105131;1270;73379;-70
2022/04/13 07:27:49;;;;;;;22.30;18.00;;;;;;;9.31;56.28;99525.30;105272;1270;62072;-72
2022/04/13 07:30:16;;;;;;;148.70;133.20;;;;;;;9.43;56.62;99528.77;105325;1271;62075;-70
2022/04/13 07:32:45;;;;;;;37.60;33.60;;;;;;;9.56;56.83;99534.60;105352;1271;77577;-74
2022/04/13 07:35:12;;;;;;;23.70;20.50;;;;;;;9.75;57.13;99533.73;105489;1269;68500;-73
2022/04/13 07:37:40;;;;;;;21.10;17.60;;;;;;;9.91;56.19;99538.91;105383;1271;72783;-73
2022/04/13 07:40:11;;;;;;;18.80;16.80;;;;;;;9.94;55.67;99536.59;105269;1271;62057;-72
2022/04/13 07:42:38;;;;;;;18.20;14.70;;;;;;;10.00;55.65;99540.38;105546;1271;62001;-73
2022/04/13 07:45:07;;;;;;;20.40;15.30;;;;;;;10.07;55.03;99539.08;105124;1271;76487;-72
2022/04/13 07:47:33;;;;;;;20.60;17.00;;;;;;;10.07;54.72;99537.47;105303;1270;69954;-72
2022/04/13 07:50:00;;;;;;;17.20;14.00;;;;;;;10.14;54.77;99544.00;105078;1270;61999;-72
2022/04/13 07:52:26;;;;;;;17.30;14.30;;;;;;;10.14;53.61;99540.80;105146;1270;62073;-74
2022/04/13 07:54:53;;;;;;;16.60;13.70;;;;;;;10.20;54.57;99541.19;105143;1270;62214;-74
2022/04/13 07:57:19;;;;;;;15.40;12.60;;;;;;;10.39;54.51;99535.90;105106;1270;62228;-72
2022/04/13 07:59:46;;;;;;;17.90;15.10;;;;;;;10.53;53.76;99533.79;105160;1271;62117;-73
2022/04/13 08:02:12;;;;;;;16.70;15.00;;;;;;;10.65;53.53;99533.09;105135;1271;62114;-71
2022/04/13 08:04:39;;;;;;;15.30;13.30;;;;;;;10.78;53.43;99530.60;105135;1270;62198;-71
2022/04/13 08:07:05;;;;;;;15.90;13.90;;;;;;;10.88;53.39;99531.54;105286;1271;62092;-73
2022/04/13 08:09:34;;;;;;;14.70;12.80;;;;;;;10.98;53.10;99525.99;105251;1271;62188;-73
2022/04/13 08:12:01;;;;;;;15.60;12.10;;;;;;;11.09;53.03;99524.80;105260;1271;68645;-72
2022/04/13 08:14:28;;;;;;;13.90;10.50;;;;;;;11.14;52.50;99524.83;105176;1271;73252;-73
2022/04/13 08:16:55;;;;;;;13.00;10.90;;;;;;;11.20;52.08;99526.83;105167;1271;61979;-72
2022/04/13 08:19:21;;;;;;;16.00;11.70;;;;;;;11.25;52.11;99522.40;105299;1271;61971;-71
2022/04/13 08:21:48;;;;;;;16.90;12.30;;;;;;;11.37;52.32;99523.08;105159;1270;76125;-75
2022/04/13 08:24:17;;;;;;;15.60;12.10;;;;;;;11.46;51.86;99521.48;105166;1270;62222;-75
2022/04/13 08:26:46;;;;;;;14.40;11.60;;;;;;;11.53;51.78;99517.66;105155;1271;74684;-74
2022/04/13 08:29:13;;;;;;;21.80;18.40;;;;;;;11.60;51.39;99515.24;105290;1271;62079;-76
2022/04/13 08:31:39;;;;;;;43.20;33.10;;;;;;;11.72;51.22;99516.64;105271;1271;62018;-74
2022/04/13 08:34:06;;;;;;;19.40;17.60;;;;;;;11.88;51.01;99511.58;105277;1271;62162;-74
2022/04/13 08:36:32;;;;;;;14.80;12.50;;;;;;;12.05;51.08;99510.12;105297;1271;62082;-74
2022/04/13 08:38:59;;;;;;;13.60;11.60;;;;;;;12.15;50.93;99506.05;105136;1271;62295;-73
2022/04/13 08:41:40;;;;;;;15.10;11.70;;;;;;;12.24;50.35;99507.96;105285;1271;62104;-74
2022/04/13 08:44:43;;;;;;;13.40;10.90;;;;;;;12.35;50.47;99502.27;105280;1271;62105;-74
2022/04/13 08:47:17;;;;;;;12.00;10.70;;;;;;;12.49;50.06;99506.86;104515;1279;76909;-74
2022/04/13 08:49:45;;;;;;;13.60;11.40;;;;;;;12.56;49.38;99504.84;104569;1278;69138;-74
2022/04/13 08:52:19;;;;;;;14.60;11.30;;;;;;;12.62;49.97;99504.77;104587;1279;74304;-75
2022/04/13 08:54:56;;;;;;;20.80;18.90;;;;;;;12.76;49.47;99502.70;104613;1279;62273;-75
2022/04/13 08:57:27;;;;;;;14.50;11.60;;;;;;;12.89;49.16;99499.92;104668;1279;62133;-76
2022/04/13 08:59:54;;;;;;;14.60;12.90;;;;;;;13.00;49.56;99498.41;104673;1277;75523;-76
2022/04/13 09:02:48;;;;;;;12.30;11.00;;;;;;;13.19;49.96;99496.23;104562;1277;62163;-78
2022/04/13 09:05:21;;;;;;;13.50;11.00;;;;;;;13.32;48.96;99501.75;104580;1278;71872;-77
2022/04/13 09:08:05;;;;;;;12.00;10.70;;;;;;;13.36;48.20;99501.79;104621;1278;62241;-77
2022/04/13 09:10:32;;;;;;;15.30;10.80;;;;;;;13.36;47.95;99500.38;104598;1278;61992;-78
2022/04/13 09:13:01;;;;;;;15.80;11.40;;;;;;;13.37;47.81;99494.77;104547;1277;73967;-78
2022/04/13 09:15:28;;;;;;;14.70;11.40;;;;;;;13.45;47.97;99497.87;104900;1276;69404;-77
2022/04/13 09:17:55;;;;;;;11.20;10.10;;;;;;;13.52;47.79;99498.05;104701;1279;73134;-78
2022/04/13 09:20:22;;;;;;;12.90;11.00;;;;;;;13.59;47.51;99496.30;104649;1278;62087;-76
2022/04/13 09:22:50;;;;;;;15.30;10.90;;;;;;;13.69;47.17;99495.91;104569;1278;62152;-77
2022/04/13 09:25:19;;;;;;;13.40;10.90;;;;;;;13.76;46.92;99494.71;105069;1271;77203;-78
2022/04/13 09:27:48;;;;;;;11.40;9.10;;;;;;;13.85;46.64;99486.72;105284;1271;68722;-77
2022/04/13 09:30:14;;;;;;;10.90;8.30;;;;;;;13.89;45.64;99487.20;104982;1274;73481;-79
2022/04/13 09:32:42;;;;;;;11.50;10.00;;;;;;;13.89;45.10;99484.87;105282;1271;61989;-78
2022/04/13 09:35:09;;;;;;;14.70;13.10;;;;;;;13.92;45.38;99480.49;105441;1271;62114;-78
2022/04/13 09:37:36;;;;;;;19.30;17.50;;;;;;;14.00;45.60;99480.44;105297;1271;77182;-78
2022/04/13 09:40:07;;;;;;;13.80;10.70;;;;;;;14.14;45.32;99477.83;105211;1271;69325;-78
2022/04/13 09:42:35;;;;;;;12.50;10.80;;;;;;;14.25;45.17;99475.60;104922;1271;73091;-78
2022/04/13 09:45:04;;;;;;;12.70;8.90;;;;;;;14.31;44.13;99473.70;105322;1269;62087;-75
2022/04/13 09:47:33;;;;;;;10.50;8.70;;;;;;;14.33;44.00;99471.94;105364;1271;62169;-80
2022/04/13 09:50:02;;;;;;;11.60;10.40;;;;;;;14.43;43.77;99470.46;105342;1271;75923;-77
2022/04/13 09:52:38;;;;;;;11.90;9.50;;;;;;;14.53;43.73;99471.19;105269;1271;69731;-77
2022/04/13 09:55:06;;;;;;;9.80;8.80;;;;;;;14.66;43.59;99468.09;105310;1270;72741;-78
2022/04/13 09:57:34;;;;;;;10.40;7.90;;;;;;;14.77;42.94;99461.71;105304;1271;62083;-78
2022/04/13 10:00:05;;;;;;;11.30;8.50;;;;;;;14.89;42.94;99456.94;105310;1270;62111;-76
2022/04/13 10:02:40;;;;;;;13.90;9.60;;;;;;;15.03;42.22;99457.33;105296;1271;76250;-77
2022/04/13 10:05:09;;;;;;;10.10;8.10;;;;;;;15.10;42.22;99459.27;105319;1271;69471;-75
2022/04/13 10:07:36;;;;;;;27.80;25.00;;;;;;;15.21;42.00;99457.73;104965;1271;70268;-79
2022/04/13 10:10:04;;;;;;;46.80;42.00;;;;;;;15.23;41.44;99455.77;105301;1271;62073;-77
2022/04/13 10:12:57;;;;;;;18.70;16.70;;;;;;;15.27;41.37;99454.23;105310;1271;62106;-76
2022/04/13 10:15:24;;;;;;;10.70;8.60;;;;;;;15.42;41.69;99454.45;104583;1279;76261;-80
2022/04/13 10:17:57;;;;;;;9.40;8.40;;;;;;;15.55;41.56;99450.71;104626;1277;68111;-77
2022/04/13 10:20:39;;;;;;;10.40;7.50;;;;;;;15.70;41.98;99449.01;104604;1277;73649;-77
2022/04/13 10:23:06;;;;;;;11.50;8.90;;;;;;;15.85;42.00;99446.55;104551;1278;62376;-80
2022/04/13 10:25:32;;;;;;;9.90;7.90;;;;;;;15.97;41.42;99447.20;104577;1277;62128;-78
2022/04/13 10:28:01;;;;;;;13.60;8.90;;;;;;;15.92;39.19;99443.79;104626;1278;77322;-78
2022/04/13 10:30:35;;;;;;;12.10;8.60;;;;;;;15.80;39.00;99449.25;104599;1279;69670;-76
2022/04/13 10:33:10;;;;;;;9.70;8.40;;;;;;;15.75;38.92;99447.32;104629;1278;73605;-77
2022/04/13 10:35:42;;;;;;;11.00;8.30;;;;;;;15.76;38.73;99442.98;104717;1276;62089;-76
2022/04/13 10:38:09;;;;;;;11.80;8.20;;;;;;;15.74;37.03;99442.39;104659;1278;62149;-77
2022/04/13 10:40:40;;;;;;;12.70;8.40;;;;;;;15.61;36.89;99440.25;104757;1278;76596;-75
2022/04/13 10:43:11;;;;;;;10.10;7.50;;;;;;;15.55;37.11;99437.84;104637;1281;67343;-78
2022/04/13 10:45:40;;;;;;;10.50;8.80;;;;;;;15.61;37.33;99433.40;104820;1276;73191;-78
2022/04/13 10:48:11;;;;;;;10.80;7.70;;;;;;;15.74;37.94;99430.05;104701;1276;62432;-77
2022/04/13 10:50:37;;;;;;;9.90;7.70;;;;;;;15.93;38.70;99430.63;104791;1276;62096;-76
2022/04/13 10:53:17;;;;;;;10.00;8.50;;;;;;;16.16;39.22;99428.98;104911;1274;62172;-76
2022/04/13 10:55:51;;;;;;;8.90;8.00;;;;;;;16.37;38.99;99426.44;105345;1271;70213;-78
2022/04/13 10:58:37;;;;;;;11.80;8.60;;;;;;;16.52;38.57;99428.77;105117;1271;74635;-79
2022/04/13 11:01:06;;;;;;;10.20;7.70;;;;;;;16.58;37.99;99423.27;105215;1271;62225;-77
2022/04/13 11:03:36;;;;;;;13.80;7.90;;;;;;;16.66;38.40;99424.55;105432;1271;62496;-77
2022/04/13 11:06:05;;;;;;;10.80;8.00;;;;;;;16.76;38.33;99420.66;105419;1271;75725;-76
2022/04/13 11:08:44;;;;;;;9.80;8.70;;;;;;;16.84;37.62;99419.63;105886;1271;69208;-77
2022/04/13 11:11:17;;;;;;;11.30;7.90;;;;;;;16.80;37.17;99417.27;105173;1271;70657;-77
2022/04/13 11:13:48;;;;;;;10.80;8.60;;;;;;;16.83;37.09;99417.01;105559;1270;62053;-77
2022/04/13 11:16:17;;;;;;;12.70;8.90;;;;;;;16.81;36.64;99419.02;105356;1271;62325;-76
2022/04/13 11:19:06;;;;;;;9.80;8.80;;;;;;;16.74;36.25;99418.70;105314;1271;76828;-76